Time;durP1;ratioP1;P1;durP2;ratioP2;P2;SDS_P1;SDS_P2;PMS_P1;PMS_P2;Temp;Humidity;BMP_temperature;BMP_pressure;BME280_temperature;BME280_humidity;BME280_pressure;Samples;Min_cycle;Max_cycle;Signal;HPM_P1;HPM_P2
2023/03/17 00:02:09;;;;;;;3.20;2.33;;;21.30;47.80;;;;;;4983021;28;20486;-68
2023/03/17 00:04:35;;;;;;;3.30;2.47;;;21.20;47.70;;;;;;4981267;28;20034;-68
2023/03/17 00:07:01;;;;;;;3.10;2.47;;;21.20;47.70;;;;;;4985897;28;20065;-67
2023/03/17 00:09:26;;;;;;;2.60;2.10;;;21.20;47.70;;;;;;4984039;28;20027;-67
2023/03/17 00:11:53;;;;;;;3.70;2.45;;;21.20;47.70;;;;;;4983076;28;20015;-67
2023/03/17 00:14:18;;;;;;;3.00;2.10;;;21.20;47.70;;;;;;4979577;28;20109;-67
2023/03/17 00:16:48;;;;;;;3.15;2.28;;;21.20;47.70;;;;;;4982601;28;20390;-66
2023/03/17 00:19:31;;;;;;;4.25;2.40;;;21.20;47.80;;;;;;4982044;28;20034;-68
2023/03/17 00:21:58;;;;;;;2.80;1.90;;;21.20;47.70;;;;;;4983528;28;20030;-67
2023/03/17 00:24:24;;;;;;;3.03;2.05;;;21.20;47.80;;;;;;4980235;28;20398;-67
2023/03/17 00:26:50;;;;;;;3.05;1.98;;;21.20;47.70;;;;;;4982221;28;20030;-67
2023/03/17 00:29:16;;;;;;;3.00;2.20;;;21.10;47.70;;;;;;4981738;28;20027;-68
2023/03/17 00:31:44;;;;;;;2.53;1.92;;;21.10;47.70;;;;;;4979763;28;20371;-68
2023/03/17 00:34:17;;;;;;;2.70;2.05;;;21.10;47.70;;;;;;4983400;28;20026;-68
2023/03/17 00:36:45;;;;;;;3.50;2.00;;;21.10;47.70;;;;;;4986691;28;20043;-68
2023/03/17 00:39:15;;;;;;;2.70;2.05;;;21.10;47.80;;;;;;4988279;28;20039;-67
2023/03/17 00:41:41;;;;;;;2.78;1.92;;;21.10;47.70;;;;;;4985408;28;20435;-67
2023/03/17 00:44:07;;;;;;;2.50;1.60;;;21.10;47.70;;;;;;4986278;28;20030;-67
2023/03/17 00:46:36;;;;;;;2.58;1.98;;;21.10;47.80;;;;;;4998603;28;20579;-67
2023/03/17 00:49:17;;;;;;;3.05;2.00;;;21.10;47.70;;;;;;4987102;28;20100;-68
2023/03/17 00:51:43;;;;;;;2.85;1.85;;;21.10;47.80;;;;;;4986322;28;20532;-67
2023/03/17 00:54:10;;;;;;;3.00;1.90;;;21.10;47.80;;;;;;4984339;28;20054;-67
2023/03/17 00:56:37;;;;;;;3.17;2.00;;;21.10;47.80;;;;;;4986827;28;20035;-68
2023/03/17 00:59:03;;;;;;;2.90;2.00;;;21.10;47.80;;;;;;4985817;28;20034;-67
2023/03/17 01:01:29;;;;;;;3.15;2.00;;;21.00;47.70;;;;;;4985614;28;20089;-67
2023/03/17 01:03:55;;;;;;;2.72;1.85;;;21.00;47.70;;;;;;4984686;28;20033;-67
2023/03/17 01:06:21;;;;;;;3.00;1.80;;;21.00;47.80;;;;;;4985254;28;20058;-68
2023/03/17 01:08:46;;;;;;;2.63;1.90;;;21.00;47.80;;;;;;4987529;28;20034;-67
2023/03/17 01:11:17;;;;;;;2.35;1.90;;;21.00;47.70;;;;;;4984369;28;20134;-67
2023/03/17 01:13:43;;;;;;;2.40;1.80;;;21.00;47.80;;;;;;4985270;28;20521;-67
2023/03/17 01:16:11;;;;;;;2.75;1.85;;;21.00;47.80;;;;;;4986174;28;20027;-67
2023/03/17 01:18:36;;;;;;;2.58;1.73;;;21.00;47.80;;;;;;4986261;28;20037;-67
2023/03/17 01:21:03;;;;;;;3.47;1.80;;;21.00;47.70;;;;;;4984073;28;20026;-67
2023/03/17 01:23:30;;;;;;;3.67;1.77;;;21.00;47.80;;;;;;4982209;28;20483;-67
2023/03/17 01:25:56;;;;;;;2.60;1.85;;;21.00;47.80;;;;;;4982893;28;20515;-67
2023/03/17 01:28:22;;;;;;;2.42;1.92;;;21.00;47.80;;;;;;4983263;28;20061;-67
2023/03/17 01:30:48;;;;;;;2.33;1.65;;;20.90;47.70;;;;;;4984585;28;20031;-67
2023/03/17 01:33:14;;;;;;;2.60;1.80;;;20.90;47.70;;;;;;4982216;28;20063;-67
2023/03/17 01:35:42;;;;;;;2.63;1.60;;;20.90;47.70;;;;;;4983673;28;20058;-67
2023/03/17 01:38:09;;;;;;;2.33;1.55;;;20.90;47.70;;;;;;4983934;28;20030;-68
2023/03/17 01:40:41;;;;;;;2.30;1.60;;;20.90;47.70;;;;;;4983916;28;20023;-67
2023/03/17 01:43:09;;;;;;;2.33;1.70;;;20.90;47.70;;;;;;4985104;28;20368;-67
2023/03/17 01:46:12;;;;;;;2.47;1.58;;;20.90;47.70;;;;;;4984634;28;20405;-67
2023/03/17 01:48:43;;;;;;;3.10;1.90;;;20.90;47.70;;;;;;4987068;28;20023;-67
2023/03/17 01:51:14;;;;;;;2.38;1.45;;;20.90;47.70;;;;;;4986775;28;20075;-66
2023/03/17 01:53:40;;;;;;;2.35;1.50;;;20.90;47.70;;;;;;4984487;28;20459;-67
2023/03/17 01:56:07;;;;;;;2.53;1.50;;;20.90;47.80;;;;;;4985921;28;20033;-67
2023/03/17 01:58:33;;;;;;;2.60;1.70;;;20.90;47.70;;;;;;4983037;28;20065;-67
2023/03/17 02:00:58;;;;;;;2.70;1.73;;;20.80;47.70;;;;;;4990098;28;20430;-68
2023/03/17 02:03:25;;;;;;;2.53;1.60;;;20.80;47.70;;;;;;4980300;28;20041;-67
2023/03/17 02:05:52;;;;;;;2.08;1.48;;;20.80;47.70;;;;;;4983647;28;20069;-67
2023/03/17 02:08:17;;;;;;;2.25;1.50;;;20.80;47.70;;;;;;4982837;28;20033;-66
2023/03/17 02:10:44;;;;;;;2.22;1.50;;;20.80;48.00;;;;;;4982185;28;20034;-67
2023/03/17 02:13:12;;;;;;;2.30;1.50;;;20.80;47.70;;;;;;4984353;28;20111;-67
2023/03/17 02:15:48;;;;;;;1.90;1.40;;;20.80;48.30;;;;;;4997394;28;20049;-68
2023/03/17 02:18:16;;;;;;;2.33;1.45;;;20.80;47.70;;;;;;4996891;28;20023;-67
2023/03/17 02:20:47;;;;;;;1.90;1.35;;;20.80;47.80;;;;;;4983788;28;20023;-66
2023/03/17 02:23:22;;;;;;;2.45;1.70;;;20.80;47.70;;;;;;4982380;28;20029;-68
2023/03/17 02:25:50;;;;;;;2.03;1.48;;;20.80;47.80;;;;;;4987612;28;20376;-67
2023/03/17 02:28:21;;;;;;;1.92;1.30;;;20.80;47.80;;;;;;4983556;28;20030;-67
2023/03/17 02:30:47;;;;;;;2.42;1.60;;;20.80;47.80;;;;;;4983353;28;20069;-67
2023/03/17 02:33:13;;;;;;;2.15;1.45;;;20.70;47.70;;;;;;4983901;28;20026;-67
2023/03/17 02:35:39;;;;;;;1.83;1.30;;;20.70;47.70;;;;;;4983099;28;20022;-67
2023/03/17 02:38:05;;;;;;;2.17;1.40;;;20.70;47.80;;;;;;4989417;28;20411;-67
2023/03/17 02:40:31;;;;;;;1.88;1.17;;;20.70;47.80;;;;;;4984479;28;20026;-67
2023/03/17 02:42:58;;;;;;;1.83;1.40;;;20.70;47.80;;;;;;4981723;28;20501;-67
2023/03/17 02:45:24;;;;;;;1.92;1.42;;;20.70;47.80;;;;;;4980695;28;20905;-66
2023/03/17 02:47:50;;;;;;;2.03;1.38;;;20.70;47.70;;;;;;4977665;28;20026;-67
2023/03/17 02:50:24;;;;;;;2.20;1.40;;;20.70;47.80;;;;;;4982743;28;20038;-66
2023/03/17 02:52:50;;;;;;;2.15;1.50;;;20.70;47.80;;;;;;4983856;28;20058;-67
2023/03/17 02:55:16;;;;;;;2.35;1.50;;;20.70;47.80;;;;;;4978691;28;20450;-67
2023/03/17 02:57:42;;;;;;;1.85;1.20;;;20.70;47.80;;;;;;4987544;28;20040;-67
2023/03/17 03:00:09;;;;;;;1.55;1.10;;;20.70;47.80;;;;;;4983018;28;20105;-67
2023/03/17 03:02:38;;;;;;;2.28;1.38;;;20.70;47.80;;;;;;4980638;28;20022;-67
2023/03/17 03:05:06;;;;;;;1.88;1.35;;;20.70;47.80;;;;;;4985807;28;20026;-67
2023/03/17 03:07:31;;;;;;;1.77;1.20;;;20.70;47.80;;;;;;4983540;28;20149;-67
2023/03/17 03:09:57;;;;;;;1.92;1.40;;;20.70;47.80;;;;;;4982077;28;20455;-67
2023/03/17 03:12:24;;;;;;;1.63;1.20;;;20.70;47.80;;;;;;4979567;28;20451;-67
2023/03/17 03:14:49;;;;;;;2.10;1.40;;;20.60;47.80;;;;;;4987500;28;20517;-67
2023/03/17 03:17:15;;;;;;;1.40;1.10;;;20.60;48.30;;;;;;4983635;28;20030;-66
2023/03/17 03:19:41;;;;;;;1.90;1.38;;;20.60;47.80;;;;;;4983885;28;20036;-69
2023/03/17 03:22:07;;;;;;;1.90;1.30;;;20.60;48.30;;;;;;4982761;28;20034;-67
2023/03/17 03:24:32;;;;;;;1.73;1.30;;;20.60;47.70;;;;;;4981691;28;20113;-66
2023/03/17 03:26:58;;;;;;;1.85;1.25;;;20.60;47.80;;;;;;4983328;28;20542;-67
2023/03/17 03:29:24;;;;;;;2.20;1.42;;;20.60;47.80;;;;;;4983646;28;20106;-67
2023/03/17 03:31:50;;;;;;;2.08;1.33;;;20.60;47.80;;;;;;4980515;28;20074;-67
2023/03/17 03:34:16;;;;;;;1.88;1.20;;;20.60;48.30;;;;;;4982322;28;20221;-68
2023/03/17 03:36:42;;;;;;;2.00;1.13;;;20.60;47.80;;;;;;4982361;28;20102;-68
2023/03/17 03:39:08;;;;;;;2.30;1.30;;;20.60;47.80;;;;;;4984356;28;20027;-68
2023/03/17 03:41:34;;;;;;;1.73;1.20;;;20.60;47.80;;;;;;4980641;28;20591;-67
2023/03/17 03:44:00;;;;;;;1.70;1.20;;;20.60;48.30;;;;;;4981622;28;20034;-68
2023/03/17 03:46:26;;;;;;;1.83;1.20;;;20.60;47.80;;;;;;4981112;28;20019;-68
2023/03/17 03:48:52;;;;;;;1.63;1.25;;;20.50;47.80;;;;;;4981806;28;20062;-68
2023/03/17 03:51:18;;;;;;;1.42;1.10;;;20.50;47.80;;;;;;4980353;28;20023;-68
2023/03/17 03:53:43;;;;;;;1.88;1.45;;;20.60;47.80;;;;;;4980662;28;20114;-66
2023/03/17 03:56:09;;;;;;;1.60;1.10;;;20.60;47.80;;;;;;4983472;28;20030;-67
2023/03/17 03:58:35;;;;;;;1.77;1.27;;;20.50;47.80;;;;;;4983709;28;20063;-67
2023/03/17 04:01:08;;;;;;;1.90;1.20;;;20.50;47.80;;;;;;4988697;28;20085;-67
2023/03/17 04:03:35;;;;;;;1.30;1.10;;;20.50;47.80;;;;;;4983659;28;20073;-67
2023/03/17 04:06:02;;;;;;;1.88;1.38;;;20.50;47.80;;;;;;4982125;28;20486;-68
2023/03/17 04:08:28;;;;;;;1.88;1.20;;;20.50;47.80;;;;;;4981984;28;20441;-67
2023/03/17 04:10:53;;;;;;;1.92;1.30;;;20.50;47.80;;;;;;4986815;28;20106;-67
2023/03/17 04:13:19;;;;;;;1.42;1.10;;;20.50;47.80;;;;;;4985080;28;20044;-67
2023/03/17 04:15:44;;;;;;;1.40;1.05;;;20.50;47.80;;;;;;4983944;28;20029;-67
2023/03/17 04:18:10;;;;;;;1.45;1.17;;;20.50;47.80;;;;;;4986068;28;20035;-68
2023/03/17 04:20:37;;;;;;;1.27;0.93;;;20.50;47.80;;;;;;4986272;28;20808;-67
2023/03/17 04:23:03;;;;;;;1.60;1.20;;;20.50;47.80;;;;;;4984984;28;20050;-68
2023/03/17 04:25:29;;;;;;;1.50;1.17;;;20.50;47.80;;;;;;4990145;28;20787;-68
2023/03/17 04:27:55;;;;;;;1.67;1.27;;;20.50;47.90;;;;;;4986327;28;20018;-67
2023/03/17 04:30:21;;;;;;;1.88;1.27;;;20.50;47.90;;;;;;4991023;28;20548;-68
2023/03/17 04:32:46;;;;;;;1.60;1.10;;;20.50;48.40;;;;;;4985509;28;20451;-68
2023/03/17 04:35:20;;;;;;;1.08;0.93;;;20.50;47.90;;;;;;4987064;28;20026;-67
2023/03/17 04:37:47;;;;;;;1.77;1.10;;;20.50;47.90;;;;;;4982709;28;20502;-68
2023/03/17 04:40:14;;;;;;;1.52;1.13;;;20.50;48.00;;;;;;4986285;28;20027;-68
2023/03/17 04:42:40;;;;;;;1.50;1.00;;;20.40;47.90;;;;;;4987754;28;20065;-67
2023/03/17 04:45:08;;;;;;;1.40;1.02;;;20.40;48.40;;;;;;4987385;28;20113;-66
2023/03/17 04:47:34;;;;;;;1.45;1.00;;;20.50;48.00;;;;;;4981672;28;20019;-66
2023/03/17 04:50:00;;;;;;;1.27;1.00;;;20.40;47.90;;;;;;4986523;28;20349;-66
2023/03/17 04:52:27;;;;;;;1.45;1.00;;;20.50;48.00;;;;;;4987053;28;20030;-67
2023/03/17 04:54:52;;;;;;;1.17;1.00;;;20.50;48.00;;;;;;4986136;28;20485;-66
2023/03/17 04:57:18;;;;;;;1.92;1.13;;;20.40;47.90;;;;;;4985378;28;20026;-66
2023/03/17 04:59:44;;;;;;;1.00;0.90;;;20.40;47.90;;;;;;4983038;28;20475;-66
2023/03/17 05:02:09;;;;;;;1.50;1.00;;;20.50;48.00;;;;;;4984538;28;20030;-66
2023/03/17 05:04:35;;;;;;;1.50;1.00;;;20.40;47.90;;;;;;4984073;28;20027;-66
2023/03/17 05:07:01;;;;;;;1.48;1.00;;;20.40;47.90;;;;;;4982730;28;20038;-67
2023/03/17 05:09:27;;;;;;;1.33;1.00;;;20.40;47.90;;;;;;4988603;28;20034;-68
2023/03/17 05:11:53;;;;;;;1.08;0.93;;;20.40;47.90;;;;;;4985947;28;20023;-66
2023/03/17 05:14:20;;;;;;;1.40;0.93;;;20.40;47.90;;;;;;4985595;28;20490;-66
2023/03/17 05:16:49;;;;;;;1.33;1.00;;;20.40;48.00;;;;;;5000290;28;20420;-66
2023/03/17 05:19:15;;;;;;;1.20;1.00;;;20.40;48.00;;;;;;4982690;28;20027;-66
2023/03/17 05:21:41;;;;;;;0.88;0.80;;;20.40;48.00;;;;;;4984815;28;20033;-66
2023/03/17 05:24:07;;;;;;;1.33;1.00;;;20.40;48.10;;;;;;4982219;28;20538;-66
2023/03/17 05:26:33;;;;;;;1.50;1.00;;;20.40;48.00;;;;;;4984566;28;20037;-66
2023/03/17 05:28:59;;;;;;;1.52;1.00;;;20.40;48.00;;;;;;4985484;28;20438;-66
2023/03/17 05:31:24;;;;;;;0.98;0.80;;;20.40;48.10;;;;;;4982406;28;20482;-67
2023/03/17 05:33:50;;;;;;;0.98;0.80;;;20.40;48.10;;;;;;4984382;28;20563;-67
2023/03/17 05:36:16;;;;;;;1.52;0.90;;;20.40;48.10;;;;;;4990023;28;20035;-66
2023/03/17 05:38:43;;;;;;;1.38;0.98;;;20.40;48.10;;;;;;4985738;28;20046;-67
2023/03/17 05:41:09;;;;;;;1.52;0.98;;;20.40;48.10;;;;;;4978607;28;20475;-67
2023/03/17 05:43:35;;;;;;;1.23;0.90;;;20.40;48.10;;;;;;4981097;28;20490;-67
2023/03/17 05:46:02;;;;;;;1.15;0.95;;;20.40;48.20;;;;;;4984413;28;20050;-66
2023/03/17 05:48:28;;;;;;;1.42;1.00;;;20.30;48.10;;;;;;4982617;28;20101;-66
2023/03/17 05:50:53;;;;;;;1.23;0.98;;;20.30;48.20;;;;;;4986309;28;20454;-66
2023/03/17 05:53:19;;;;;;;1.13;0.90;;;20.40;48.20;;;;;;4982112;28;20061;-67
2023/03/17 05:55:45;;;;;;;1.73;1.15;;;20.30;48.20;;;;;;4984387;28;20050;-67
2023/03/17 05:58:11;;;;;;;1.00;0.82;;;20.30;48.20;;;;;;4982192;28;20519;-66
2023/03/17 06:00:37;;;;;;;1.63;1.08;;;20.30;48.20;;;;;;4985896;28;20118;-67
2023/03/17 06:03:03;;;;;;;1.45;1.00;;;20.30;48.40;;;;;;4986142;28;20471;-67
2023/03/17 06:05:29;;;;;;;1.75;1.00;;;20.30;48.50;;;;;;4984977;28;20081;-67
2023/03/17 06:07:55;;;;;;;2.03;1.10;;;20.30;48.50;;;;;;4981076;28;20486;-67
2023/03/17 06:10:21;;;;;;;1.90;1.10;;;20.30;48.60;;;;;;4998596;28;20034;-67
2023/03/17 06:12:47;;;;;;;1.30;1.00;;;20.30;48.80;;;;;;4984809;28;20068;-67
2023/03/17 06:15:12;;;;;;;1.88;1.00;;;20.30;48.80;;;;;;4985329;28;20157;-67
2023/03/17 06:17:38;;;;;;;1.75;1.10;;;20.30;48.80;;;;;;4981414;28;20080;-66
2023/03/17 06:20:04;;;;;;;2.05;1.30;;;20.30;48.80;;;;;;4981611;28;20031;-66
2023/03/17 06:22:30;;;;;;;1.13;1.00;;;20.30;48.80;;;;;;4983691;28;20027;-67
2023/03/17 06:24:56;;;;;;;1.80;1.00;;;20.30;48.80;;;;;;4985535;28;20035;-66
2023/03/17 06:27:21;;;;;;;1.65;1.00;;;20.30;48.80;;;;;;4983772;28;20490;-66
2023/03/17 06:29:47;;;;;;;1.73;0.90;;;20.30;48.80;;;;;;4983716;28;20033;-67
2023/03/17 06:32:13;;;;;;;1.55;0.95;;;20.30;48.70;;;;;;4980702;28;20030;-66
2023/03/17 06:34:40;;;;;;;1.50;1.00;;;20.30;48.70;;;;;;4982155;28;20070;-67
2023/03/17 06:37:06;;;;;;;1.98;1.00;;;20.30;48.80;;;;;;4982911;28;20466;-66
2023/03/17 06:39:31;;;;;;;1.70;0.90;;;20.30;48.80;;;;;;4983088;28;20204;-67
2023/03/17 06:41:57;;;;;;;1.90;1.02;;;20.30;48.80;;;;;;4981242;28;20149;-67
2023/03/17 06:44:23;;;;;;;1.05;0.90;;;20.30;48.80;;;;;;4983053;28;20431;-67
2023/03/17 06:46:48;;;;;;;1.40;0.90;;;20.30;48.80;;;;;;4987014;28;20034;-67
2023/03/17 06:49:14;;;;;;;1.83;1.00;;;20.20;48.80;;;;;;4985805;28;20026;-67
2023/03/17 06:51:40;;;;;;;1.40;1.00;;;20.30;48.80;;;;;;4982553;28;20447;-68
2023/03/17 06:54:07;;;;;;;1.52;0.95;;;20.30;48.90;;;;;;4984617;28;20030;-66
2023/03/17 06:56:33;;;;;;;3.10;1.10;;;20.30;48.80;;;;;;4985006;28;20019;-67
2023/03/17 06:58:58;;;;;;;2.38;1.20;;;20.20;48.90;;;;;;4981117;28;20049;-67
2023/03/17 07:01:26;;;;;;;2.53;1.10;;;20.20;48.90;;;;;;4982774;28;20516;-67
2023/03/17 07:03:52;;;;;;;2.53;1.05;;;20.20;48.90;;;;;;4980643;28;20092;-67
2023/03/17 07:06:17;;;;;;;4.38;1.33;;;20.20;48.90;;;;;;4984434;28;20037;-67
2023/03/17 07:08:45;;;;;;;2.85;1.25;;;20.20;48.90;;;;;;4983315;28;20449;-66
2023/03/17 07:11:11;;;;;;;3.03;1.15;;;20.20;48.90;;;;;;4983549;28;20135;-67
2023/03/17 07:13:38;;;;;;;3.03;1.25;;;20.30;49.00;;;;;;4982207;28;20090;-67
2023/03/17 07:16:04;;;;;;;2.88;1.30;;;20.20;48.90;;;;;;4979853;28;20378;-66
2023/03/17 07:18:30;;;;;;;1.80;1.10;;;20.20;49.50;;;;;;4980658;28;20035;-67
2023/03/17 07:20:57;;;;;;;3.45;1.33;;;20.20;49.00;;;;;;4988816;28;20026;-67
2023/03/17 07:23:23;;;;;;;2.22;1.30;;;20.20;49.00;;;;;;4980504;28;20113;-67
2023/03/17 07:25:50;;;;;;;2.95;1.35;;;20.20;49.10;;;;;;4983062;28;20106;-67
2023/03/17 07:28:16;;;;;;;2.88;1.55;;;20.20;49.10;;;;;;4980584;28;20116;-67
2023/03/17 07:30:45;;;;;;;3.40;1.33;;;20.20;49.10;;;;;;4981944;28;20030;-67
2023/03/17 07:33:16;;;;;;;2.60;1.30;;;20.20;49.10;;;;;;4982392;28;20483;-67
2023/03/17 07:35:42;;;;;;;3.13;1.30;;;20.20;49.10;;;;;;4980747;28;20074;-67
2023/03/17 07:38:08;;;;;;;3.85;1.50;;;20.20;49.20;;;;;;4982525;28;20183;-67
2023/03/17 07:40:34;;;;;;;3.05;1.20;;;20.20;49.20;;;;;;4984154;28;20046;-67
2023/03/17 07:43:00;;;;;;;5.07;1.40;;;20.20;49.20;;;;;;4982159;28;20081;-67
2023/03/17 07:45:26;;;;;;;2.72;1.30;;;20.20;49.20;;;;;;4983122;28;20026;-67
2023/03/17 07:47:52;;;;;;;2.88;1.25;;;20.20;49.30;;;;;;4982961;28;20022;-67
2023/03/17 07:50:19;;;;;;;2.17;1.13;;;20.20;49.30;;;;;;4988956;28;20105;-67
2023/03/17 07:52:44;;;;;;;2.47;1.10;;;20.20;49.30;;;;;;4982849;28;20030;-67
2023/03/17 07:55:11;;;;;;;3.25;1.33;;;20.20;49.30;;;;;;4982289;28;20482;-67
2023/03/17 07:57:37;;;;;;;2.30;1.20;;;20.20;49.30;;;;;;4981156;28;20058;-67
2023/03/17 08:00:08;;;;;;;2.70;1.30;;;20.20;49.30;;;;;;4982674;28;20474;-67
2023/03/17 08:02:34;;;;;;;2.75;1.23;;;20.20;49.40;;;;;;4984150;28;20034;-67
2023/03/17 08:05:00;;;;;;;2.40;1.30;;;20.20;49.90;;;;;;4988077;28;20470;-67
2023/03/17 08:07:26;;;;;;;3.70;1.23;;;20.20;49.40;;;;;;4981453;28;20069;-67
2023/03/17 08:09:52;;;;;;;2.60;1.30;;;20.20;49.40;;;;;;4983864;28;20058;-67
2023/03/17 08:12:18;;;;;;;2.00;1.10;;;20.20;49.50;;;;;;4980538;28;20047;-67
2023/03/17 08:14:44;;;;;;;3.05;1.35;;;20.20;49.40;;;;;;4982287;28;20038;-67
2023/03/17 08:17:10;;;;;;;2.17;1.27;;;20.20;49.50;;;;;;4981603;28;20042;-67
2023/03/17 08:19:35;;;;;;;2.03;1.15;;;20.20;49.50;;;;;;4984170;28;20065;-68
2023/03/17 08:22:01;;;;;;;2.20;1.20;;;20.20;49.50;;;;;;4988168;28;20034;-67
2023/03/17 08:24:27;;;;;;;2.28;1.20;;;20.20;49.50;;;;;;4987066;28;20034;-67
2023/03/17 08:26:52;;;;;;;3.42;1.30;;;20.20;49.50;;;;;;4988563;28;20515;-67
2023/03/17 08:29:19;;;;;;;2.53;1.13;;;20.20;49.50;;;;;;4982502;28;20023;-67
2023/03/17 08:31:45;;;;;;;2.42;1.13;;;20.30;49.50;;;;;;4994037;28;20379;-67
2023/03/17 08:34:10;;;;;;;2.28;1.10;;;20.20;49.50;;;;;;4981574;28;20027;-67
2023/03/17 08:36:36;;;;;;;2.85;1.38;;;20.20;49.50;;;;;;4979425;28;20022;-67
2023/03/17 08:39:04;;;;;;;2.67;1.20;;;20.20;49.50;;;;;;4977257;28;20027;-67
2023/03/17 08:41:30;;;;;;;2.70;1.17;;;20.20;49.50;;;;;;4980349;28;20058;-67
2023/03/17 08:43:56;;;;;;;2.15;1.20;;;20.30;49.60;;;;;;4981495;28;20037;-67
2023/03/17 08:46:28;;;;;;;1.80;1.10;;;20.30;49.60;;;;;;4979588;28;20109;-67
2023/03/17 08:48:56;;;;;;;1.90;1.10;;;20.20;49.60;;;;;;4980693;28;20082;-67
2023/03/17 08:51:27;;;;;;;1.90;1.10;;;20.30;50.10;;;;;;4980920;28;20510;-67
2023/03/17 08:53:53;;;;;;;2.08;1.08;;;20.30;49.60;;;;;;4981423;28;20042;-67
2023/03/17 08:56:20;;;;;;;2.20;1.10;;;20.30;49.60;;;;;;4985091;28;20056;-67
2023/03/17 08:58:46;;;;;;;2.05;1.00;;;20.30;49.60;;;;;;4987017;28;20026;-67
2023/03/17 09:01:12;;;;;;;2.17;1.00;;;20.30;49.60;;;;;;4985969;28;20034;-67
2023/03/17 09:03:39;;;;;;;1.83;1.00;;;20.30;49.60;;;;;;4986561;28;20467;-67
2023/03/17 09:06:06;;;;;;;2.63;1.10;;;20.30;49.60;;;;;;4988116;28;20402;-67
2023/03/17 09:08:39;;;;;;;2.33;1.15;;;20.30;49.60;;;;;;4988838;28;20486;-67
2023/03/17 09:11:07;;;;;;;2.15;1.08;;;20.30;49.60;;;;;;4986417;28;20030;-67
2023/03/17 09:13:34;;;;;;;1.83;1.02;;;20.30;49.60;;;;;;4986773;28;20097;-67
2023/03/17 09:16:01;;;;;;;2.20;1.10;;;20.30;50.00;;;;;;4987036;28;20035;-67
2023/03/17 09:18:27;;;;;;;3.03;1.30;;;20.30;49.60;;;;;;4999874;28;20027;-67
2023/03/17 09:20:52;;;;;;;2.90;1.20;;;20.30;49.60;;;;;;4984048;28;20474;-67
2023/03/17 09:23:18;;;;;;;2.60;1.20;;;20.30;49.60;;;;;;4985075;28;20022;-67
2023/03/17 09:25:45;;;;;;;1.98;0.98;;;20.30;49.50;;;;;;4984565;28;20090;-67
2023/03/17 09:28:11;;;;;;;2.25;1.23;;;20.30;49.60;;;;;;4983700;28;20760;-67
2023/03/17 09:30:40;;;;;;;1.55;1.00;;;20.30;49.60;;;;;;4983463;28;20093;-67
2023/03/17 09:33:05;;;;;;;2.22;1.10;;;20.30;49.60;;;;;;4983707;28;20078;-67
2023/03/17 09:35:31;;;;;;;1.92;0.93;;;20.30;49.50;;;;;;4995980;28;20034;-67
2023/03/17 09:37:57;;;;;;;1.63;1.00;;;20.30;49.60;;;;;;4982910;28;20517;-67
2023/03/17 09:40:32;;;;;;;2.28;1.10;;;20.30;49.60;;;;;;4985233;28;20126;-67
2023/03/17 09:43:25;;;;;;;2.08;1.20;;;20.30;49.60;;;;;;4983931;28;20030;-67
2023/03/17 09:45:51;;;;;;;2.17;1.20;;;20.30;49.60;;;;;;4984288;28;20149;-67
2023/03/17 09:48:35;;;;;;;1.90;1.00;;;20.30;49.60;;;;;;4983570;28;20063;-67
2023/03/17 09:51:07;;;;;;;1.80;0.95;;;20.30;50.10;;;;;;4984487;28;20026;-67
2023/03/17 09:53:46;;;;;;;1.42;1.00;;;20.30;49.50;;;;;;4987462;28;20363;-67
2023/03/17 09:56:15;;;;;;;2.05;1.17;;;20.30;49.50;;;;;;4984512;28;20019;-67
2023/03/17 09:58:49;;;;;;;2.50;1.38;;;20.30;49.50;;;;;;4984104;28;20035;-67
2023/03/17 10:01:15;;;;;;;1.88;0.90;;;20.30;50.10;;;;;;4984110;28;20027;-67
2023/03/17 10:03:41;;;;;;;2.08;1.13;;;20.30;49.60;;;;;;4984263;28;20035;-67
2023/03/17 10:06:36;;;;;;;1.60;1.05;;;20.30;49.50;;;;;;4982955;28;20027;-67
2023/03/17 10:09:25;;;;;;;1.52;1.00;;;20.30;49.60;;;;;;4983482;28;20018;-68
2023/03/17 10:12:26;;;;;;;1.50;1.00;;;20.30;49.60;;;;;;4981290;28;20030;-67
2023/03/17 10:15:02;;;;;;;1.33;0.90;;;20.30;49.60;;;;;;4984722;28;20118;-67
2023/03/17 10:17:35;;;;;;;1.90;0.90;;;20.30;49.50;;;;;;4984866;28;20525;-68
2023/03/17 10:20:13;;;;;;;1.92;1.05;;;20.30;49.60;;;;;;4997385;28;20034;-67
2023/03/17 10:22:52;;;;;;;1.30;0.90;;;20.30;49.50;;;;;;4985146;28;20156;-67
2023/03/17 10:25:21;;;;;;;1.88;1.00;;;20.30;49.50;;;;;;4983794;28;20500;-67
2023/03/17 10:28:04;;;;;;;2.03;1.00;;;20.30;49.50;;;;;;4986405;28;20041;-67
2023/03/17 10:30:34;;;;;;;1.80;1.00;;;20.30;49.50;;;;;;4983367;28;20316;-67
2023/03/17 10:33:02;;;;;;;1.95;1.00;;;20.30;49.50;;;;;;4983479;28;20037;-67
2023/03/17 10:35:29;;;;;;;1.92;1.00;;;20.30;49.50;;;;;;4983743;28;20066;-67
2023/03/17 10:37:54;;;;;;;1.08;0.80;;;20.30;49.50;;;;;;4980763;28;20026;-68
2023/03/17 10:40:29;;;;;;;1.95;1.10;;;20.40;49.60;;;;;;4981942;28;20030;-67
2023/03/17 10:43:04;;;;;;;2.28;1.27;;;20.40;49.60;;;;;;4982333;28;20027;-67
2023/03/17 10:45:40;;;;;;;1.60;1.00;;;20.40;49.60;;;;;;4983392;28;20493;-67
2023/03/17 10:48:15;;;;;;;1.23;0.80;;;20.40;49.60;;;;;;4982061;28;20047;-67
2023/03/17 10:50:40;;;;;;;1.25;0.90;;;20.40;49.60;;;;;;4981361;28;20364;-68
2023/03/17 10:53:17;;;;;;;1.42;0.90;;;20.40;49.60;;;;;;4983348;28;20033;-68
2023/03/17 10:55:48;;;;;;;1.58;0.90;;;20.40;49.60;;;;;;4983912;28;20031;-68
2023/03/17 10:58:37;;;;;;;1.30;0.80;;;20.40;49.60;;;;;;4983530;28;20033;-68
2023/03/17 11:01:18;;;;;;;1.20;0.90;;;20.40;49.60;;;;;;4984714;28;20101;-68
2023/03/17 11:03:45;;;;;;;1.48;0.88;;;20.40;49.60;;;;;;4983925;28;20062;-68
2023/03/17 11:06:19;;;;;;;1.40;0.90;;;20.40;49.60;;;;;;4996195;28;20141;-68
2023/03/17 11:08:48;;;;;;;1.45;0.90;;;20.40;49.60;;;;;;4983721;28;20526;-67
2023/03/17 11:11:25;;;;;;;1.38;0.80;;;20.40;49.60;;;;;;4989001;28;20030;-68
2023/03/17 11:14:04;;;;;;;1.48;0.90;;;20.40;49.60;;;;;;4983268;28;20490;-69
2023/03/17 11:16:36;;;;;;;;;;;20.40;49.70;;;;;;4984582;28;20030;-68
2023/03/17 11:19:04;;;;;;;2.05;1.10;;;20.40;49.60;;;;;;4985638;28;20358;-68
2023/03/17 11:21:50;;;;;;;1.88;1.00;;;20.40;49.60;;;;;;4980872;28;20062;-68
2023/03/17 11:24:26;;;;;;;1.33;0.90;;;20.40;49.60;;;;;;4981116;28;20027;-69
2023/03/17 11:26:56;;;;;;;1.40;0.90;;;20.40;49.60;;;;;;4982265;28;20426;-68
2023/03/17 11:29:25;;;;;;;1.95;1.00;;;20.40;49.60;;;;;;4981426;28;20033;-68
2023/03/17 11:32:08;;;;;;;2.60;1.08;;;20.40;49.60;;;;;;4982163;28;20014;-68
2023/03/17 11:34:34;;;;;;;1.55;0.90;;;20.40;49.70;;;;;;4983932;28;20179;-68
2023/03/17 11:37:41;;;;;;;2.10;1.00;;;20.40;49.60;;;;;;4982786;28;20070;-69
2023/03/17 11:40:26;;;;;;;1.35;0.90;;;20.40;49.70;;;;;;4975261;28;20061;-68
2023/03/17 11:43:25;;;;;;;1.25;0.80;;;20.40;49.70;;;;;;4981366;28;20058;-68
2023/03/17 11:46:12;;;;;;;2.25;1.00;;;20.40;49.70;;;;;;4981893;28;20066;-67
2023/03/17 11:48:46;;;;;;;1.92;1.00;;;20.40;49.70;;;;;;4979378;28;20030;-68
2023/03/17 11:51:38;;;;;;;2.03;1.00;;;20.40;49.70;;;;;;4982393;28;20471;-67
2023/03/17 11:54:34;;;;;;;3.03;1.40;;;20.40;49.70;;;;;;4982916;28;20027;-67
2023/03/17 11:57:04;;;;;;;1.88;1.20;;;20.40;49.70;;;;;;4998852;28;20540;-67
2023/03/17 11:59:43;;;;;;;3.10;1.60;;;20.40;49.60;;;;;;4982840;28;20094;-67
2023/03/17 12:02:21;;;;;;;2.97;1.92;;;20.40;49.60;;;;;;4979233;28;20057;-67
2023/03/17 12:04:56;;;;;;;4.10;2.67;;;20.40;49.60;;;;;;4982523;28;20031;-68
2023/03/17 12:07:30;;;;;;;6.00;3.85;;;20.50;49.50;;;;;;4986019;28;20058;-68
2023/03/17 12:10:07;;;;;;;4.65;4.15;;;20.50;49.40;;;;;;4983846;28;20027;-68
2023/03/17 12:12:43;;;;;;;7.15;5.78;;;20.50;49.30;;;;;;4981619;28;20035;-68
2023/03/17 12:15:35;;;;;;;7.45;6.57;;;20.50;49.20;;;;;;4981756;28;20597;-68
2023/03/17 12:18:22;;;;;;;8.32;6.75;;;20.40;49.00;;;;;;4982123;28;20022;-68
2023/03/17 12:20:58;;;;;;;9.45;7.03;;;20.50;49.00;;;;;;4982679;28;20026;-68
2023/03/17 12:23:47;;;;;;;7.75;6.90;;;20.50;48.90;;;;;;4984253;28;20534;-68
2023/03/17 12:26:41;;;;;;;10.53;7.57;;;20.40;48.80;;;;;;4977635;28;20084;-68
2023/03/17 12:29:35;;;;;;;8.40;7.43;;;20.50;48.80;;;;;;4984351;28;20783;-68
2023/03/17 12:32:07;;;;;;;8.70;7.32;;;20.50;48.70;;;;;;4983861;28;20074;-68
2023/03/17 12:34:41;;;;;;;7.47;6.63;;;20.50;48.80;;;;;;4986273;28;20058;-68
2023/03/17 12:37:07;;;;;;;7.75;6.88;;;20.50;48.60;;;;;;4985570;28;20030;-67
2023/03/17 12:39:35;;;;;;;7.47;6.38;;;20.50;48.60;;;;;;4988162;28;20042;-68
2023/03/17 12:42:18;;;;;;;7.82;6.70;;;20.50;48.60;;;;;;4981747;28;20042;-68
2023/03/17 12:45:08;;;;;;;7.43;6.22;;;20.50;48.50;;;;;;4986076;28;20041;-68
2023/03/17 12:47:44;;;;;;;7.70;6.70;;;20.50;48.50;;;;;;4984118;28;20027;-68
2023/03/17 12:50:29;;;;;;;7.35;6.20;;;20.50;48.50;;;;;;4991593;28;20077;-68
2023/03/17 12:53:03;;;;;;;6.25;5.47;;;20.50;48.40;;;;;;5000408;28;20029;-68
2023/03/17 12:55:32;;;;;;;6.78;5.72;;;20.50;48.50;;;;;;4990839;28;20043;-68
2023/03/17 12:58:15;;;;;;;7.40;5.85;;;20.50;48.50;;;;;;4985377;28;20042;-68
2023/03/17 13:01:01;;;;;;;5.82;4.85;;;20.50;48.50;;;;;;4983363;28;20030;-68